Time;durP1;ratioP1;P1;durP2;ratioP2;P2;SDS_P1;SDS_P2;PMS_P1;PMS_P2;Temp;Humidity;BMP_temperature;BMP_pressure;BME280_temperature;BME280_humidity;BME280_pressure;Samples;Min_cycle;Max_cycle;Signal;HPM_P1;HPM_P2
2022/03/19 00:00:14;;;;;;;;;;;;;;;16.28;48.58;103428.38;4939253;28;125857;-70
2022/03/19 00:02:40;;;;;;;;;;;;;;;16.26;48.48;103425.03;4941217;28;98577;-71
2022/03/19 00:05:08;;;;;;;;;;;;;;;16.24;48.22;103430.72;4940138;28;99247;-64
2022/03/19 00:07:38;;;;;;;;;;;;;;;16.22;48.44;103429.28;4941922;28;97769;-70
2022/03/19 00:10:06;;;;;;;;;;;;;;;16.20;48.52;103433.09;4922076;28;98615;-70
2022/03/19 00:12:32;;;;;;;;;;;;;;;16.18;48.62;103432.47;4941357;28;98422;-65
2022/03/19 00:14:58;;;;;;;;;;;;;;;16.17;48.40;103430.00;4938803;28;126747;-70
2022/03/19 00:17:24;;;;;;;;;;;;;;;16.14;48.54;103427.75;4939699;28;114204;-65
2022/03/19 00:19:50;;;;;;;;;;;;;;;16.13;48.50;103426.91;4939173;28;127849;-70
2022/03/19 00:22:16;;;;;;;;;;;;;;;16.12;48.28;103438.03;4939694;28;126852;-70
2022/03/19 00:24:42;;;;;;;;;;;;;;;16.10;48.38;103434.72;4938276;28;114764;-65
2022/03/19 00:27:08;;;;;;;;;;;;;;;16.08;48.13;103436.84;4939971;28;113484;-70
2022/03/19 00:29:34;;;;;;;;;;;;;;;16.06;48.26;103442.50;4939517;28;98216;-65
2022/03/19 00:31:59;;;;;;;;;;;;;;;16.05;48.46;103442.75;4939417;28;106236;-64
2022/03/19 00:34:25;;;;;;;;;;;;;;;16.02;48.00;103435.88;4939844;28;99306;-70
2022/03/19 00:36:51;;;;;;;;;;;;;;;16.00;48.16;103442.63;4923094;28;97961;-65
2022/03/19 00:39:17;;;;;;;;;;;;;;;15.99;48.25;103440.94;4922610;28;98025;-70
2022/03/19 00:41:43;;;;;;;;;;;;;;;15.96;48.09;103439.53;4940370;28;99139;-64
2022/03/19 00:44:09;;;;;;;;;;;;;;;15.94;48.12;103433.47;4940191;28;98171;-69
2022/03/19 00:46:35;;;;;;;;;;;;;;;15.91;48.20;103434.75;4918671;28;97896;-65
2022/03/19 00:49:01;;;;;;;;;;;;;;;15.90;47.98;103435.00;4919923;28;128091;-64
2022/03/19 00:51:27;;;;;;;;;;;;;;;15.88;48.27;103432.53;4940177;28;98320;-70
2022/03/19 00:53:53;;;;;;;;;;;;;;;15.86;48.25;103434.63;4942687;28;127670;-65
2022/03/19 00:56:19;;;;;;;;;;;;;;;15.86;48.05;103441.97;4941564;28;118841;-69
2022/03/19 00:58:45;;;;;;;;;;;;;;;15.84;47.82;103439.50;4943321;28;128800;-65
2022/03/19 01:01:11;;;;;;;;;;;;;;;15.85;47.97;103440.31;4923868;28;106742;-64
2022/03/19 01:03:37;;;;;;;;;;;;;;;15.84;47.96;103444.94;4943249;28;98875;-70
2022/03/19 01:06:03;;;;;;;;;;;;;;;15.84;47.94;103439.50;4924415;28;97836;-70
2022/03/19 01:08:29;;;;;;;;;;;;;;;15.83;47.89;103442.44;4942866;28;106316;-71
2022/03/19 01:10:55;;;;;;;;;;;;;;;15.85;47.85;103437.59;4924885;28;98700;-64
2022/03/19 01:13:21;;;;;;;;;;;;;;;15.85;47.92;103443.03;4924389;28;105017;-69
2022/03/19 01:15:47;;;;;;;;;;;;;;;15.85;47.98;103437.59;4923923;28;118076;-70
2022/03/19 01:18:13;;;;;;;;;;;;;;;15.85;47.94;103438.44;4943223;28;98752;-70
2022/03/19 01:20:39;;;;;;;;;;;;;;;15.86;47.82;103436.53;4941830;28;98850;-65
2022/03/19 01:23:05;;;;;;;;;;;;;;;15.87;47.83;103430.03;4925362;28;97833;-65
2022/03/19 01:25:31;;;;;;;;;;;;;;;15.88;48.18;103429.81;4941633;28;117374;-65
2022/03/19 01:27:57;;;;;;;;;;;;;;;15.88;47.87;103424.38;4943629;28;98705;-65
2022/03/19 01:30:24;;;;;;;;;;;;;;;15.89;48.11;103428.75;4940754;28;128146;-65
2022/03/19 01:32:50;;;;;;;;;;;;;;;15.90;48.22;103421.41;4924816;28;98113;-65
2022/03/19 01:35:16;;;;;;;;;;;;;;;15.91;48.19;103420.34;4942777;28;97935;-70
2022/03/19 01:37:42;;;;;;;;;;;;;;;15.92;47.86;103409.25;4943451;28;101190;-69
2022/03/19 01:40:09;;;;;;;;;;;;;;;15.93;48.06;103412.78;4941750;28;127169;-66
2022/03/19 01:42:36;;;;;;;;;;;;;;;15.95;47.97;103416.09;4924709;28;98655;-70
2022/03/19 01:45:04;;;;;;;;;;;;;;;15.97;48.04;103410.44;4942872;28;97880;-65
2022/03/19 01:47:30;;;;;;;;;;;;;;;15.97;48.12;103408.53;4924239;28;126462;-70
2022/03/19 01:49:56;;;;;;;;;;;;;;;15.98;48.17;103402.03;4940885;28;127900;-69
2022/03/19 01:52:22;;;;;;;;;;;;;;;15.99;48.36;103402.84;4920762;28;98306;-69
2022/03/19 01:54:49;;;;;;;;;;;;;;;16.00;48.24;103407.25;4922861;28;98069;-68
2022/03/19 01:57:17;;;;;;;;;;;;;;;16.01;48.45;103406.19;4921915;28;127845;-65
2022/03/19 01:59:43;;;;;;;;;;;;;;;16.02;48.65;103402.41;4923690;28;106854;-65
2022/03/19 02:02:11;;;;;;;;;;;;;;;16.02;48.51;103403.22;4941692;28;97818;-66
2022/03/19 02:04:37;;;;;;;;;;;;;;;16.03;48.42;103404.88;4942397;28;97752;-69
2022/03/19 02:07:05;;;;;;;;;;;;;;;16.05;48.62;103405.50;4941272;28;128279;-66
2022/03/19 02:09:30;;;;;;;;;;;;;;;16.07;48.35;103400.66;4942579;28;98386;-69
2022/03/19 02:11:56;;;;;;;;;;;;;;;16.07;48.57;103402.53;4922575;28;125826;-68
2022/03/19 02:14:22;;;;;;;;;;;;;;;16.08;48.41;103396.88;4923101;28;117577;-65
2022/03/19 02:16:49;;;;;;;;;;;;;;;16.09;48.42;103403.97;4922721;28;128691;-65
2022/03/19 02:19:15;;;;;;;;;;;;;;;16.10;48.41;103385.72;4941886;28;98531;-65
2022/03/19 02:21:45;;;;;;;;;;;;;;;16.10;48.32;103388.44;4941866;28;98790;-69
2022/03/19 02:26:55;;;;;;;;;;;;;;;16.11;48.27;103392.81;4941376;28;98080;-70
2022/03/19 02:29:21;;;;;;;;;;;;;;;16.11;48.67;103388.25;4941969;28;98454;-68
2022/03/19 02:31:49;;;;;;;;;;;;;;;16.10;48.61;103383.84;4940632;28;108525;-69
2022/03/19 02:34:15;;;;;;;;;;;;;;;16.10;48.43;103383.84;4924330;28;97948;-65
2022/03/19 02:36:41;;;;;;;;;;;;;;;16.09;48.44;103384.91;4941218;28;125084;-66
2022/03/19 02:39:09;;;;;;;;;;;;;;;16.09;48.45;103384.09;4922266;28;127266;-69
2022/03/19 02:41:35;;;;;;;;;;;;;;;16.09;48.56;103384.09;4941382;28;98135;-65
2022/03/19 02:44:02;;;;;;;;;;;;;;;16.07;48.52;103378.88;4941306;28;113220;-65
2022/03/19 02:46:41;;;;;;;;;;;;;;;16.06;48.69;103382.66;4941419;28;98704;-65
2022/03/19 02:49:07;;;;;;;;;;;;;;;16.07;48.77;103386.19;4943352;28;98877;-69
2022/03/19 02:51:37;;;;;;;;;;;;;;;16.04;48.51;103379.34;4939969;28;120906;-69
2022/03/19 02:54:04;;;;;;;;;;;;;;;16.03;48.41;103377.66;4923489;28;103045;-65
2022/03/19 02:56:33;;;;;;;;;;;;;;;16.02;48.80;103359.69;4922102;28;100024;-69
2022/03/19 02:59:05;;;;;;;;;;;;;;;16.00;48.69;103364.56;4942545;28;100512;-69
2022/03/19 03:01:31;;;;;;;;;;;;;;;15.99;48.49;103362.06;4940717;28;98347;-65
2022/03/19 03:03:57;;;;;;;;;;;;;;;15.97;48.82;103359.59;4940569;28;116752;-69
2022/03/19 03:06:24;;;;;;;;;;;;;;;15.96;48.43;103357.94;4940017;28;127239;-68
2022/03/19 03:08:50;;;;;;;;;;;;;;;15.95;48.70;103356.25;4940806;28;98790;-68
2022/03/19 03:11:17;;;;;;;;;;;;;;;15.92;48.58;103356.75;4940096;28;127501;-65
2022/03/19 03:13:43;;;;;;;;;;;;;;;15.89;48.73;103355.31;4942054;28;97737;-65
2022/03/19 03:16:09;;;;;;;;;;;;;;;15.89;48.94;103358.03;4940396;28;98969;-67
2022/03/19 03:18:35;;;;;;;;;;;;;;;15.87;48.67;103360.13;4941604;28;98231;-65
2022/03/19 03:21:01;;;;;;;;;;;;;;;15.85;48.83;103359.56;4918650;28;98105;-69
2022/03/19 03:23:27;;;;;;;;;;;;;;;15.83;48.83;103353.50;4921702;28;117883;-65
2022/03/19 03:25:53;;;;;;;;;;;;;;;15.82;48.85;103356.47;4914999;28;126103;-65
2022/03/19 03:28:19;;;;;;;;;;;;;;;15.80;48.87;103348.56;4940989;28;110610;-69
2022/03/19 03:30:45;;;;;;;;;;;;;;;15.79;48.98;103348.78;4940109;28;124535;-65
2022/03/19 03:33:11;;;;;;;;;;;;;;;15.76;49.00;103341.06;4940348;28;117386;-65
2022/03/19 03:35:37;;;;;;;;;;;;;;;15.74;48.71;103341.31;4938962;28;129019;-68
2022/03/19 03:38:03;;;;;;;;;;;;;;;15.72;48.74;103346.19;4923564;28;98981;-68
2022/03/19 03:40:29;;;;;;;;;;;;;;;15.70;48.66;103343.66;4939600;28;127316;-65
2022/03/19 03:42:55;;;;;;;;;;;;;;;15.69;48.89;103343.91;4940595;28;97849;-65
2022/03/19 03:45:21;;;;;;;;;;;;;;;15.67;48.66;103337.88;4939574;28;99707;-69
2022/03/19 03:47:47;;;;;;;;;;;;;;;15.65;49.02;103342.72;4922500;28;128335;-68
2022/03/19 03:50:13;;;;;;;;;;;;;;;15.64;48.55;103335.56;4922246;28;127108;-65
2022/03/19 03:52:39;;;;;;;;;;;;;;;15.62;48.77;103335.81;4940877;28;117418;-65
2022/03/19 03:55:06;;;;;;;;;;;;;;;15.60;48.86;103331.66;4905098;28;129373;-65
2022/03/19 03:57:34;;;;;;;;;;;;;;;15.59;48.57;103332.72;4923002;28;98949;-65
2022/03/19 04:00:01;;;;;;;;;;;;;;;15.57;48.76;103341.13;4939323;28;98000;-68
2022/03/19 04:02:27;;;;;;;;;;;;;;;15.57;48.56;103343.84;4923658;28;97868;-69
2022/03/19 04:04:53;;;;;;;;;;;;;;;15.55;48.96;103335.06;4940640;28;98408;-68
2022/03/19 04:07:19;;;;;;;;;;;;;;;15.54;48.63;103338.03;4939762;28;128145;-65
2022/03/19 04:09:45;;;;;;;;;;;;;;;15.53;49.06;103337.22;4938976;28;127535;-65
2022/03/19 04:12:11;;;;;;;;;;;;;;;15.52;48.73;103338.25;4905340;28;118346;-67
2022/03/19 04:14:37;;;;;;;;;;;;;;;15.50;48.64;103337.69;4940040;28;119492;-69
2022/03/19 04:17:04;;;;;;;;;;;;;;;15.49;48.69;103329.75;4922368;28;98304;-65
2022/03/19 04:19:30;;;;;;;;;;;;;;;15.46;48.82;103334.59;4922806;28;98189;-69
2022/03/19 04:21:56;;;;;;;;;;;;;;;15.44;48.67;103334.00;4939724;28;114249;-69
2022/03/19 04:24:22;;;;;;;;;;;;;;;15.45;48.77;103326.69;4938809;28;127270;-69
2022/03/19 04:26:48;;;;;;;;;;;;;;;15.42;48.88;103325.25;4924838;28;127504;-69
2022/03/19 04:29:14;;;;;;;;;;;;;;;15.41;49.08;103325.47;4943841;28;127981;-65
2022/03/19 04:31:40;;;;;;;;;;;;;;;15.40;48.66;103326.50;4923910;28;115350;-65
2022/03/19 04:34:06;;;;;;;;;;;;;;;15.38;48.98;103331.38;4924464;28;128042;-65
2022/03/19 04:36:38;;;;;;;;;;;;;;;15.36;48.88;103334.31;4943321;28;98551;-68
2022/03/19 04:39:05;;;;;;;;;;;;;;;15.35;48.69;103331.81;4943990;28;98527;-69
2022/03/19 04:41:31;;;;;;;;;;;;;;;15.32;48.64;103333.09;4925056;28;98192;-67
2022/03/19 04:43:57;;;;;;;;;;;;;;;15.30;49.01;103335.25;4944125;28;100264;-68
2022/03/19 04:46:23;;;;;;;;;;;;;;;15.29;49.08;103344.47;4942532;28;124254;-68
2022/03/19 04:48:50;;;;;;;;;;;;;;;15.28;48.73;103336.50;4925514;28;113456;-68
2022/03/19 04:51:17;;;;;;;;;;;;;;;15.27;48.82;103332.97;4921617;28;98294;-68
2022/03/19 04:53:50;;;;;;;;;;;;;;;15.26;49.02;103344.91;4923358;28;98122;-65
2022/03/19 04:56:22;;;;;;;;;;;;;;;15.25;48.84;103339.69;4937068;28;99450;-68
2022/03/19 04:58:48;;;;;;;;;;;;;;;15.24;48.71;103338.84;4942731;28;123946;-69
2022/03/19 05:01:14;;;;;;;;;;;;;;;15.22;48.88;103332.84;4942367;28;98686;-69
2022/03/19 05:03:40;;;;;;;;;;;;;;;15.21;48.77;103332.03;4942774;28;121739;-65
2022/03/19 05:06:06;;;;;;;;;;;;;;;15.21;48.87;103333.91;4942385;28;128155;-69
2022/03/19 05:08:32;;;;;;;;;;;;;;;15.19;48.71;103336.84;4942214;28;127373;-65
2022/03/19 05:11:13;;;;;;;;;;;;;;;15.17;48.80;103336.25;4942312;28;119438;-69
2022/03/19 05:13:43;;;;;;;;;;;;;;;15.18;49.02;103335.19;4943848;28;98723;-65
2022/03/19 05:16:09;;;;;;;;;;;;;;;15.18;48.79;103337.91;4943087;28;98740;-69
2022/03/19 05:18:35;;;;;;;;;;;;;;;15.19;48.68;103333.28;4942109;28;127569;-65
2022/03/19 05:21:01;;;;;;;;;;;;;;;15.17;48.73;103338.16;4904810;28;98464;-68
2022/03/19 05:23:27;;;;;;;;;;;;;;;15.18;49.04;103342.50;4920952;28;128564;-68
2022/03/19 05:25:53;;;;;;;;;;;;;;;15.17;48.86;103338.97;4934166;28;125920;-68
2022/03/19 05:28:19;;;;;;;;;;;;;;;15.17;48.96;103346.28;4942725;28;114434;-68
2022/03/19 05:30:46;;;;;;;;;;;;;;;15.19;49.06;103339.56;4941592;28;103691;-68
2022/03/19 05:33:15;;;;;;;;;;;;;;;15.19;48.73;103336.84;4924962;28;98138;-69
2022/03/19 05:35:41;;;;;;;;;;;;;;;15.21;48.81;103344.78;4920595;28;98364;-69
2022/03/19 05:38:07;;;;;;;;;;;;;;;15.22;48.99;103343.72;4923748;28;98320;-65
2022/03/19 05:40:34;;;;;;;;;;;;;;;15.23;48.67;103338.03;4942838;28;108853;-65
2022/03/19 05:43:00;;;;;;;;;;;;;;;15.26;48.66;103331.31;4942753;28;98527;-65
2022/03/19 05:45:26;;;;;;;;;;;;;;;15.27;49.04;103335.69;4941039;28;128082;-69
2022/03/19 05:47:52;;;;;;;;;;;;;;;15.31;48.91;103333.34;4941711;28;98561;-69
2022/03/19 05:50:17;;;;;;;;;;;;;;;15.34;48.93;103336.44;4942422;28;99061;-70
2022/03/19 05:52:46;;;;;;;;;;;;;;;15.38;49.02;103342.25;4940998;28;127802;-66
2022/03/19 05:55:13;;;;;;;;;;;;;;;15.41;48.59;103341.78;4942251;28;98231;-69
2022/03/19 05:57:40;;;;;;;;;;;;;;;15.44;48.97;103335.88;4942229;28;98775;-65
2022/03/19 06:00:07;;;;;;;;;;;;;;;15.48;48.50;103342.50;4924293;28;98002;-69
2022/03/19 06:02:38;;;;;;;;;;;;;;;15.53;48.69;103345.38;4942199;28;98669;-69
2022/03/19 06:05:04;;;;;;;;;;;;;;;15.57;48.58;103340.31;4922840;28;125988;-65
2022/03/19 06:07:30;;;;;;;;;;;;;;;15.60;48.46;103342.53;4923484;28;127980;-70
2022/03/19 06:09:56;;;;;;;;;;;;;;;15.65;48.75;103348.16;4941434;28;117541;-70
2022/03/19 06:12:22;;;;;;;;;;;;;;;15.69;48.66;103341.19;4942065;28;99461;-70
2022/03/19 06:14:53;;;;;;;;;;;;;;;15.74;48.70;103352.19;4942009;28;104731;-65
2022/03/19 06:17:19;;;;;;;;;;;;;;;15.77;48.53;103351.72;4924636;28;98210;-69
2022/03/19 06:19:45;;;;;;;;;;;;;;;15.83;48.41;103347.25;4942368;28;97876;-65
2022/03/19 06:22:11;;;;;;;;;;;;;;;15.89;48.52;103349.03;4906056;28;124274;-65
2022/03/19 06:24:37;;;;;;;;;;;;;;;15.95;48.77;103356.25;4918710;28;117347;-65
2022/03/19 06:27:03;;;;;;;;;;;;;;;16.00;48.84;103350.97;4912621;28;98985;-70
2022/03/19 06:29:30;;;;;;;;;;;;;;;16.05;48.44;103358.41;4935410;28;109432;-69
2022/03/19 06:31:56;;;;;;;;;;;;;;;16.10;48.50;103353.91;4929038;28;115627;-68
2022/03/19 06:34:22;;;;;;;;;;;;;;;16.15;48.42;103353.19;4937183;28;128561;-65
2022/03/19 06:39:32;;;;;;;;;;;;;;;16.20;48.30;103335.13;4936571;28;98047;-68
2022/03/19 06:41:58;;;;;;;;;;;;;;;16.24;48.44;103337.38;4936737;28;127894;-65
2022/03/19 06:44:24;;;;;;;;;;;;;;;16.29;48.57;103337.47;4920555;28;99860;-68
2022/03/19 06:46:50;;;;;;;;;;;;;;;16.37;48.28;103339.84;4934841;28;128709;-66
2022/03/19 06:49:16;;;;;;;;;;;;;;;16.51;48.02;103340.44;4937873;28;97865;-64
2022/03/19 06:51:42;;;;;;;;;;;;;;;16.48;48.45;103336.28;4936619;28;127821;-65
2022/03/19 06:54:08;;;;;;;;;;;;;;;16.55;48.08;103345.16;4938572;28;99361;-69
2022/03/19 06:56:34;;;;;;;;;;;;;;;16.58;48.41;103341.13;4936259;28;126043;-65
2022/03/19 06:59:00;;;;;;;;;;;;;;;16.63;48.13;103343.97;4937288;28;118668;-64
2022/03/19 07:01:25;;;;;;;;;;;;;;;16.65;48.37;103336.38;4937072;28;98718;-69
2022/03/19 07:03:51;;;;;;;;;;;;;;;16.70;48.42;103341.94;4937506;28;126734;-69
2022/03/19 07:06:18;;;;;;;;;;;;;;;16.74;48.34;103342.31;4930638;28;129253;-65
2022/03/19 07:08:44;;;;;;;;;;;;;;;16.77;48.20;103339.94;4917440;28;98318;-65
2022/03/19 07:11:10;;;;;;;;;;;;;;;16.97;47.88;103325.91;4923887;28;99007;-69
2022/03/19 07:13:36;;;;;;;;;;;;;;;17.00;48.12;103332.78;4937365;28;99555;-65
2022/03/19 07:16:02;;;;;;;;;;;;;;;17.08;48.15;103335.13;4936112;28;121701;-65
2022/03/19 07:18:28;;;;;;;;;;;;;;;17.28;47.74;103343.69;4937818;28;99104;-69
2022/03/19 07:20:54;;;;;;;;;;;;;;;17.42;47.91;103341.50;4936957;28;127341;-65
2022/03/19 07:23:20;;;;;;;;;;;;;;;17.72;47.35;103333.03;4919028;28;99495;-65
2022/03/19 07:25:46;;;;;;;;;;;;;;;17.91;47.30;103334.47;4906202;28;99454;-65
2022/03/19 07:28:14;;;;;;;;;;;;;;;17.99;47.28;103341.44;4937813;28;100704;-68
2022/03/19 07:30:40;;;;;;;;;;;;;;;18.25;47.28;103334.47;4936690;28;98362;-69
2022/03/19 07:33:06;;;;;;;;;;;;;;;18.36;47.09;103330.81;4937105;28;98986;-68
2022/03/19 07:35:32;;;;;;;;;;;;;;;18.73;46.97;103329.44;4936701;28;117863;-65
2022/03/19 07:37:59;;;;;;;;;;;;;;;18.63;47.25;103332.84;4938011;28;97848;-68
2022/03/19 07:43:11;;;;;;;;;;;;;;;18.74;47.36;103342.00;4934766;28;97885;-69
2022/03/19 07:45:37;;;;;;;;;;;;;;;18.68;47.73;103343.00;4937448;28;98147;-65
2022/03/19 07:48:04;;;;;;;;;;;;;;;18.89;47.40;103342.19;4937295;28;101386;-69
2022/03/19 07:50:30;;;;;;;;;;;;;;;19.27;46.63;103330.34;4923540;28;99439;-69
2022/03/19 07:52:56;;;;;;;;;;;;;;;19.38;46.94;103336.75;4930425;28;116688;-65
2022/03/19 07:55:22;;;;;;;;;;;;;;;19.45;47.08;103328.31;4936322;28;122545;-68
2022/03/19 07:57:48;;;;;;;;;;;;;;;19.78;46.59;103328.13;4937859;28;98113;-65
2022/03/19 08:00:14;;;;;;;;;;;;;;;20.43;45.70;103323.34;4935114;28;125987;-65
2022/03/19 08:02:40;;;;;;;;;;;;;;;20.82;45.42;103328.50;4935873;28;128689;-69
2022/03/19 08:05:07;;;;;;;;;;;;;;;21.44;44.95;103322.13;4937001;28;112358;-68
2022/03/19 08:07:33;;;;;;;;;;;;;;;21.53;45.04;103316.91;4928183;28;115148;-68
2022/03/19 08:09:58;;;;;;;;;;;;;;;22.08;44.56;103320.72;4935988;28;125031;-68
2022/03/19 08:12:26;;;;;;;;;;;;;;;21.66;45.57;103321.88;4936183;28;127218;-65
2022/03/19 08:14:51;;;;;;;;;;;;;;;21.34;46.19;103327.59;4924671;28;99267;-68
2022/03/19 08:17:18;;;;;;;;;;;;;;;21.84;45.62;103327.91;4936212;28;116915;-69
2022/03/19 08:19:45;;;;;;;;;;;;;;;22.79;44.24;103317.81;4937201;28;98308;-68
2022/03/19 08:22:11;;;;;;;;;;;;;;;23.48;43.58;103321.53;4935707;28;98106;-65
2022/03/19 08:24:37;;;;;;;;;;;;;;;22.55;45.09;103320.34;4935058;28;97720;-70
2022/03/19 08:27:03;;;;;;;;;;;;;;;22.07;45.88;103316.34;4929385;28;115685;-65
2022/03/19 08:29:29;;;;;;;;;;;;;;;21.80;46.26;103316.63;4936408;28;98905;-69
2022/03/19 08:31:55;;;;;;;;;;;;;;;21.56;46.46;103322.66;4935549;28;128296;-69
2022/03/19 08:34:21;;;;;;;;;;;;;;;21.35;46.80;103312.78;4935693;28;126359;-68
2022/03/19 08:36:47;;;;;;;;;;;;;;;21.16;46.93;103309.69;4936101;28;98154;-65
2022/03/19 08:41:58;;;;;;;;;;;;;;;20.91;47.07;103309.66;4927820;28;98072;-65
2022/03/19 08:44:25;;;;;;;;;;;;;;;20.90;47.14;103303.31;4935001;28;127583;-69
2022/03/19 08:46:51;;;;;;;;;;;;;;;20.82;47.18;103310.13;4933498;28;112885;-65
2022/03/19 08:49:17;;;;;;;;;;;;;;;20.83;47.14;103298.09;4936979;28;98476;-64
2022/03/19 08:51:42;;;;;;;;;;;;;;;20.80;47.10;103306.03;4935665;28;126459;-68
2022/03/19 08:54:14;;;;;;;;;;;;;;;20.68;47.65;103310.94;4936412;28;111531;-69
2022/03/19 08:56:40;;;;;;;;;;;;;;;20.58;47.38;103309.75;4937000;28;97965;-69
2022/03/19 08:59:06;;;;;;;;;;;;;;;20.34;47.71;103317.56;4931291;28;100312;-69
2022/03/19 09:01:32;;;;;;;;;;;;;;;20.06;48.22;103318.75;4928242;28;98046;-66
2022/03/19 09:03:58;;;;;;;;;;;;;;;19.89;48.38;103318.09;4932105;28;106271;-69
2022/03/19 09:06:24;;;;;;;;;;;;;;;19.68;48.77;103319.81;4933423;28;119046;-64
2022/03/19 09:08:50;;;;;;;;;;;;;;;19.49;48.83;103319.38;4935190;28;99386;-65
2022/03/19 09:11:19;;;;;;;;;;;;;;;19.41;48.70;103316.25;4924888;28;129327;-69
2022/03/19 09:13:48;;;;;;;;;;;;;;;19.32;48.86;103305.78;4939889;28;97937;-64
2022/03/19 09:16:14;;;;;;;;;;;;;;;19.27;48.86;103308.47;4938014;28;100634;-68
2022/03/19 09:18:40;;;;;;;;;;;;;;;19.36;48.57;103303.34;4940844;28;99244;-68
2022/03/19 09:21:06;;;;;;;;;;;;;;;19.35;48.61;103312.66;4938554;28;128660;-68
2022/03/19 09:23:32;;;;;;;;;;;;;;;19.21;48.59;103314.94;4938877;28;120122;-65
2022/03/19 09:25:58;;;;;;;;;;;;;;;19.06;48.95;103312.06;4937707;28;117278;-64
2022/03/19 09:28:23;;;;;;;;;;;;;;;18.95;49.12;103310.31;4939053;28;99069;-64
2022/03/19 09:30:51;;;;;;;;;;;;;;;18.86;49.04;103315.38;4937195;28;127883;-68
2022/03/19 09:33:17;;;;;;;;;;;;;;;18.76;49.04;103305.16;4939277;28;98539;-68
2022/03/19 09:35:43;;;;;;;;;;;;;;;18.58;49.25;103305.44;4928426;28;113381;-69
2022/03/19 09:38:09;;;;;;;;;;;;;;;18.41;49.48;103302.75;4939838;28;98437;-64
2022/03/19 09:40:35;;;;;;;;;;;;;;;18.28;49.69;103301.22;4938008;28;128337;-64
2022/03/19 09:43:01;;;;;;;;;;;;;;;18.13;49.81;103301.00;4938009;28;127840;-68
2022/03/19 09:45:27;;;;;;;;;;;;;;;18.04;49.77;103284.22;4935017;28;116058;-68
2022/03/19 09:47:53;;;;;;;;;;;;;;;17.93;49.82;103292.50;4940010;28;99129;-64
2022/03/19 09:50:19;;;;;;;;;;;;;;;17.83;49.85;103295.88;4939126;28;98867;-69
2022/03/19 09:52:45;;;;;;;;;;;;;;;17.79;49.93;103297.44;4936566;28;123766;-64
2022/03/19 09:55:16;;;;;;;;;;;;;;;17.86;49.65;103281.75;4917238;28;118875;-68
2022/03/19 09:57:42;;;;;;;;;;;;;;;17.91;49.55;103295.47;4937355;28;98668;-64
2022/03/19 10:00:09;;;;;;;;;;;;;;;17.89;49.70;103294.91;4936442;28;129100;-69
2022/03/19 10:02:51;;;;;;;;;;;;;;;17.90;49.65;103291.09;4939723;28;98296;-69
2022/03/19 10:10:47;;;;;;;;;;;;;;;18.24;48.99;103291.06;4921935;28;98186;-68
2022/03/19 10:13:13;;;;;;;;;;;;;;;18.68;48.27;103293.81;4937475;28;127767;-64
2022/03/19 10:15:43;;;;;;;;;;;;;;;18.90;48.21;103283.72;4938610;28;116632;-65
2022/03/19 10:18:09;;;;;;;;;;;;;;;19.24;47.91;103278.91;4938103;28;107630;-68
2022/03/19 10:20:35;;;;;;;;;;;;;;;19.47;47.93;103274.19;4928091;28;98980;-64
2022/03/19 10:23:02;;;;;;;;;;;;;;;19.80;47.44;103271.19;4952586;28;99844;-68
2022/03/19 10:25:28;;;;;;;;;;;;;;;20.00;47.52;103278.75;4936975;28;97867;-64
2022/03/19 10:27:59;;;;;;;;;;;;;;;20.71;46.53;103275.59;4937037;28;129128;-64
2022/03/19 10:30:28;;;;;;;;;;;;;;;20.93;46.55;103264.41;4934188;28;98176;-64
2022/03/19 10:32:54;;;;;;;;;;;;;;;21.01;46.77;103274.00;4948080;28;98030;-69
2022/03/19 10:35:24;;;;;;;;;;;;;;;21.06;46.91;103274.88;4936253;28;98324;-68
2022/03/19 10:37:50;;;;;;;;;;;;;;;21.15;47.12;103274.34;4938362;28;98370;-69
2022/03/19 10:40:16;;;;;;;;;;;;;;;21.33;47.01;103271.91;4934832;28;100537;-68
2022/03/19 10:42:42;;;;;;;;;;;;;;;21.77;46.41;103270.53;4928549;28;125603;-64
2022/03/19 10:45:09;;;;;;;;;;;;;;;21.86;46.71;103274.38;4937127;28;118693;-68
2022/03/19 10:47:42;;;;;;;;;;;;;;;22.13;46.43;103259.50;4938062;28;99238;-64
2022/03/19 10:50:09;;;;;;;;;;;;;;;22.86;45.49;103268.00;4937294;28;98722;-64
2022/03/19 10:52:39;;;;;;;;;;;;;;;22.76;46.22;103274.38;4930730;28;104386;-64
2022/03/19 10:55:07;;;;;;;;;;;;;;;23.12;45.94;103270.63;4938167;28;98032;-65
2022/03/19 10:57:33;;;;;;;;;;;;;;;22.72;46.88;103269.75;4938315;28;98503;-65
2022/03/19 10:59:59;;;;;;;;;;;;;;;23.21;46.05;103269.72;4938163;28;98806;-67
2022/03/19 11:02:28;;;;;;;;;;;;;;;23.26;46.37;103275.22;4937757;28;113550;-64
2022/03/19 11:04:55;;;;;;;;;;;;;;;24.40;44.46;103273.84;4919823;28;98027;-66
2022/03/19 11:07:21;;;;;;;;;;;;;;;25.17;43.87;103272.84;4932163;28;124919;-65
2022/03/19 11:09:49;;;;;;;;;;;;;;;25.41;44.47;103262.50;4918394;28;114046;-65
2022/03/19 11:12:17;;;;;;;;;;;;;;;25.81;43.86;103256.59;4937102;28;123871;-65
2022/03/19 11:14:43;;;;;;;;;;;;;;;26.63;43.18;103244.72;4919111;28;98519;-64
2022/03/19 11:17:30;;;;;;;;;;;;;;;26.34;43.93;103245.88;4927254;28;127658;-71
2022/03/19 11:20:00;;;;;;;;;;;;;;;27.69;42.25;103226.63;4936922;28;98255;-64
2022/03/19 11:22:27;;;;;;;;;;;;;;;27.88;42.37;103235.56;4042140;28;10000641;-65
2022/03/19 11:25:09;;;;;;;;;;;;;;;28.45;42.02;103220.88;4917553;28;98143;-65
2022/03/19 11:27:36;;;;;;;;;;;;;;;28.96;41.35;103208.16;4937166;28;98767;-64
2022/03/19 11:30:04;;;;;;;;;;;;;;;28.93;41.64;103211.63;4933726;28;98897;-69
2022/03/19 11:32:30;;;;;;;;;;;;;;;29.35;41.56;103204.38;4930449;28;98019;-69
2022/03/19 11:34:59;;;;;;;;;;;;;;;29.44;41.65;103193.25;4935026;28;128082;-64
2022/03/19 11:37:46;;;;;;;;;;;;;;;29.64;41.76;103194.53;4937588;28;98350;-64
2022/03/19 11:40:12;;;;;;;;;;;;;;;30.01;41.35;103181.75;4932941;28;100241;-70
2022/03/19 11:42:52;;;;;;;;;;;;;;;30.28;41.50;103179.63;4937253;28;103138;-64
2022/03/19 11:45:18;;;;;;;;;;;;;;;30.44;41.16;103180.66;4936943;28;105196;-70
2022/03/19 11:47:44;;;;;;;;;;;;;;;30.56;41.28;103175.16;4918237;28;125408;-69
2022/03/19 11:50:21;;;;;;;;;;;;;;;30.66;41.38;103173.94;4931815;28;117593;-64
2022/03/19 11:52:46;;;;;;;;;;;;;;;30.57;41.34;103168.44;4929113;28;98351;-65
2022/03/19 11:55:13;;;;;;;;;;;;;;;30.66;41.42;103164.78;4937319;28;98639;-69
2022/03/19 11:58:03;;;;;;;;;;;;;;;30.72;41.00;103163.41;4914456;28;98104;-65
2022/03/19 12:00:31;;;;;;;;;;;;;;;30.74;41.36;103155.56;4935325;28;98195;-70
2022/03/19 12:03:04;;;;;;;;;;;;;;;30.60;41.14;103153.03;4926504;28;98476;-64
2022/03/19 12:05:34;;;;;;;;;;;;;;;30.49;41.31;103141.50;4915515;28;98217;-65
2022/03/19 12:08:12;;;;;;;;;;;;;;;30.59;40.92;103139.47;4933634;28;124046;-65
2022/03/19 12:11:01;;;;;;;;;;;;;;;30.59;41.22;103128.34;4936932;28;97796;-64
2022/03/19 12:13:26;;;;;;;;;;;;;;;30.58;41.10;103133.09;4938039;28;98464;-70
2022/03/19 12:15:53;;;;;;;;;;;;;;;30.57;41.02;103123.09;4936788;28;98636;-69
2022/03/19 12:18:25;;;;;;;;;;;;;;;30.52;40.74;103118.56;4926289;28;124881;-64
2022/03/19 12:20:52;;;;;;;;;;;;;;;30.46;40.55;103113.56;4936181;28;98141;-63
2022/03/19 12:23:19;;;;;;;;;;;;;;;30.38;40.59;103131.13;4936550;28;99793;-64
2022/03/19 12:26:05;;;;;;;;;;;;;;;30.39;40.76;103116.09;4934787;28;98462;-69
2022/03/19 12:28:31;;;;;;;;;;;;;;;30.55;40.50;103129.03;4935598;28;128711;-65
2022/03/19 12:31:08;;;;;;;;;;;;;;;30.63;40.08;103115.38;4935675;28;105118;-69
2022/03/19 12:33:34;;;;;;;;;;;;;;;30.46;40.21;103124.69;4918854;28;100203;-69
2022/03/19 12:36:14;;;;;;;;;;;;;;;29.78;41.02;103105.38;4928659;28;128597;-71
2022/03/19 12:38:40;;;;;;;;;;;;;;;29.77;40.98;103114.84;4927686;28;98689;-70
2022/03/19 12:41:26;;;;;;;;;;;;;;;29.43;40.94;103111.06;4932731;28;98217;-69
2022/03/19 12:43:52;;;;;;;;;;;;;;;29.39;40.65;103104.53;4935027;28;99082;-65
2022/03/19 12:46:42;;;;;;;;;;;;;;;29.27;40.99;103093.34;4937336;28;109640;-69